Hlavní strana
METAR-TAF:

METAR-TAF

Letiště :

Båtsfjord, Norsko

zeměpisná šířka: 70-38N, zeměpisná délka: 029-44E, výška: 10 m

Aktuální stav počasí

Zpráva byla vytvořena před 58 minutami, v 14:50 UTC
Západní vítr 29 kt s nárazy do 41 kt
Teplota 3°C
Vlhkost vzduchu 81%
Tlak 993 hPa
Viditelnost 10 km a více
Skoro jasno ve výšce 1800 ft
Oblačno až skoro zataženo ve výšce 8800 ft
slabé mrholení

METAR: ENBS 281450Z 27029G41KT 9999 -DZ FEW018 BKN088 03/00 Q0993

Čas: 16:48 (15:48 UTC)


TAF: chybějící

Stav a předpovědi počasí z více než 4 000 letišť (zprávy METAR a TAF).

Červené a žluté tečky na mapě představují dostupné meteorologické stanice.

Když kurzor umístíte na tečku, zobrazí se název stanice.

Pak kliknutím zobrazíte stav a předpověď počasí.

Chcete-li změnit mapu, kliknutím na zelené tlačítko se znaménkem +mapu přiblížíte, kliknutím na zelené tlačítko se znaménkem – mapu oddálíte a kliknutím na zelené šipky přejdete na sousední mapy.


METAR-TAF: